Wahiawa, Hawaii
Current Conditions -  °F | °C
As of 7:58 AM on Sunday 25 Jan 2015 (Local Time) from PHHI Reporting Station
Overcast Overcast  
Wind Chill: 64°   Ceiling: 5000
Heat Index: 64°   Visibility: 10mi
Dew Point: 60°   Wind: 9mph
Humidity: 88%   Direction: 320°NW
Pressure: 30.06"   Gusts: NA
Location:  21.5°N, 158.02°W
Report Text: PHHI 251758Z AUTO 32008KT 10SM OVC050 18/16 A3006 RMK AO2 SLP175 T01780158 10178 20169 52010 $
Loading
Personal Weather Stations






























Interactive Weather Map New forecast layout! Learn more

10-Day Weather Forecast

Advertisements
Track Severe Weather on mobile